Terminal Aerodrome Forecast
Issued by NWS

Home | Current Version | Previous Version | Text Only | Print | Product List | Glossary On
Versions: 1 2 3 4 5 6 7 8 9 10 11 12 13 14 15 16 17 18 19 20 21 22 23 24 25 26 27 28 29 30 31 32 33 34
000
FTUS42 KCAE 061500 AAC
TAFCUB
TAF AMD
KCUB 061509Z 0615/0712 04007KT P6SM OVC030
     FM061800 04008KT P6SM SCT025 BKN050
     FM062200 04008KT P6SM SCT250
     FM070100 VRB03KT P6SM SCT250=

USA.gov is the U.S. government's official web portal to all federal, state and local government web resources and services.